createdAt,value
2022-11-10T00:00:51.009Z,100.00
2022-11-10T00:03:39.307Z,100.00
2022-11-10T00:06:25.907Z,100.00
2022-11-10T00:09:12.336Z,100.00
2022-11-10T00:11:58.905Z,100.00
2022-11-10T00:15:03.174Z,100.00
2022-11-10T00:17:51.117Z,100.00
2022-11-10T00:20:37.784Z,100.00
2022-11-10T00:23:24.602Z,100.00
2022-11-10T00:26:15.673Z,100.00
2022-11-10T00:29:02.355Z,100.00
2022-11-10T00:31:49.000Z,100.00
2022-11-10T00:34:37.280Z,100.00
2022-11-10T00:37:23.805Z,100.00
2022-11-10T00:40:11.155Z,100.00
2022-11-10T00:42:57.716Z,100.00
2022-11-10T00:45:45.101Z,100.00
2022-11-10T00:48:31.380Z,100.00
2022-11-10T00:51:21.908Z,100.00
2022-11-10T00:54:08.097Z,100.00
2022-11-10T00:56:54.579Z,100.00
2022-11-10T00:59:40.955Z,100.00
2022-11-10T01:02:27.417Z,100.00
2022-11-10T01:05:13.616Z,100.00
2022-11-10T01:08:01.444Z,100.00
2022-11-10T01:10:47.942Z,100.00
2022-11-10T01:13:34.989Z,100.00
2022-11-10T01:16:23.003Z,100.00
2022-11-10T01:19:09.183Z,100.00
2022-11-10T01:21:55.732Z,100.00
2022-11-10T01:24:43.529Z,100.00
2022-11-10T01:27:29.797Z,100.00
2022-11-10T01:30:16.309Z,100.00
2022-11-10T01:33:02.550Z,100.00
2022-11-10T01:35:49.017Z,100.00
2022-11-10T01:38:37.838Z,100.00
2022-11-10T01:41:25.559Z,100.00
2022-11-10T01:44:16.797Z,100.00
2022-11-10T01:47:03.189Z,100.00
2022-11-10T01:49:49.588Z,100.00
2022-11-10T01:52:37.074Z,100.00
2022-11-10T01:55:24.912Z,100.00
2022-11-10T01:58:14.440Z,100.00
2022-11-10T02:01:01.113Z,100.00
2022-11-10T02:03:50.826Z,100.00
2022-11-10T02:06:40.992Z,100.00
2022-11-10T02:09:27.408Z,100.00
2022-11-10T02:12:15.318Z,100.00
2022-11-10T02:15:03.013Z,100.00
2022-11-10T02:17:49.629Z,100.00
2022-11-10T02:20:36.120Z,100.00
2022-11-10T02:23:46.617Z,100.00
2022-11-10T02:26:33.012Z,100.00
2022-11-10T02:29:19.372Z,100.00
2022-11-10T02:32:05.738Z,100.00
2022-11-10T02:34:52.383Z,100.00
2022-11-10T02:37:38.942Z,100.00
2022-11-10T02:40:26.591Z,100.00
2022-11-10T02:43:16.020Z,100.00
2022-11-10T02:46:02.507Z,100.00
2022-11-10T02:48:49.004Z,100.00
2022-11-10T02:51:35.223Z,100.00
2022-11-10T02:54:21.562Z,100.00
2022-11-10T02:57:09.364Z,100.00
2022-11-10T02:59:55.693Z,100.00
2022-11-10T03:02:42.246Z,100.00
2022-11-10T03:05:28.991Z,100.00
2022-11-10T03:08:15.425Z,100.00
2022-11-10T03:11:01.996Z,100.00
2022-11-10T03:14:01.620Z,100.00
2022-11-10T03:16:48.418Z,100.00
2022-11-10T03:19:35.198Z,100.00
2022-11-10T03:22:21.324Z,100.00
2022-11-10T03:25:08.335Z,100.00
2022-11-10T03:27:54.631Z,100.00
2022-11-10T03:30:42.695Z,100.00
2022-11-10T03:33:29.398Z,100.00
2022-11-10T03:36:15.713Z,100.00
2022-11-10T03:39:02.025Z,100.00
2022-11-10T03:41:48.449Z,100.00
2022-11-10T03:44:35.069Z,100.00
2022-11-10T03:47:22.996Z,100.00
2022-11-10T03:50:10.096Z,100.00
2022-11-10T03:52:56.786Z,100.00
2022-11-10T03:55:42.809Z,100.00
2022-11-10T03:58:29.424Z,100.00
2022-11-10T04:01:16.427Z,100.00
2022-11-10T04:04:04.708Z,100.00
2022-11-10T04:07:09.025Z,100.00
2022-11-10T04:09:55.905Z,100.00
2022-11-10T04:13:00.018Z,100.00
2022-11-10T04:15:46.571Z,100.00
2022-11-10T04:18:33.301Z,100.00
2022-11-10T04:21:21.139Z,100.00
2022-11-10T04:24:08.547Z,100.00
2022-11-10T04:26:55.111Z,100.00
2022-11-10T04:29:41.918Z,100.00
2022-11-10T04:32:28.512Z,100.00
2022-11-10T04:35:15.615Z,100.00
2022-11-10T04:38:04.110Z,100.00
2022-11-10T04:40:50.874Z,100.00
2022-11-10T04:43:37.621Z,100.00
2022-11-10T04:46:25.342Z,100.00
2022-11-10T04:49:12.111Z,100.00
2022-11-10T04:51:58.586Z,100.00
2022-11-10T04:54:46.540Z,100.00
2022-11-10T04:57:33.084Z,100.00
2022-11-10T05:00:20.156Z,100.00
2022-11-10T05:03:07.976Z,100.00
2022-11-10T05:05:54.486Z,100.00
2022-11-10T05:08:42.458Z,100.00
2022-11-10T05:11:30.289Z,100.00
2022-11-10T05:14:17.022Z,100.00
2022-11-10T05:17:03.806Z,100.00
2022-11-10T05:19:50.301Z,100.00
2022-11-10T05:22:36.963Z,100.00
2022-11-10T05:25:23.255Z,100.00
2022-11-10T05:28:12.400Z,100.00
2022-11-10T05:30:59.010Z,100.00
2022-11-10T05:33:45.332Z,100.00
2022-11-10T05:36:31.977Z,100.00
2022-11-10T05:39:18.481Z,100.00
2022-11-10T05:42:05.558Z,100.00
2022-11-10T05:44:53.639Z,100.00
2022-11-10T05:47:40.979Z,100.00
2022-11-10T05:50:27.926Z,100.00
2022-11-10T05:53:14.539Z,100.00
2022-11-10T05:56:01.317Z,100.00
2022-11-10T05:58:47.608Z,100.00
2022-11-10T06:01:35.560Z,100.00
2022-11-10T06:04:22.139Z,100.00
2022-11-10T06:07:09.102Z,100.00
2022-11-10T06:09:55.760Z,100.00
2022-11-10T06:12:42.440Z,100.00
2022-11-10T06:15:29.292Z,100.00
2022-11-10T06:18:17.263Z,100.00
2022-11-10T06:21:03.992Z,100.00
2022-11-10T06:23:50.520Z,100.00
2022-11-10T06:26:37.301Z,100.00
2022-11-10T06:29:26.841Z,100.00
2022-11-10T06:32:13.706Z,100.00
2022-11-10T06:35:01.709Z,100.00
2022-11-10T06:37:48.572Z,100.00
2022-11-10T06:40:35.081Z,100.00
2022-11-10T06:43:22.087Z,100.00
2022-11-10T06:46:08.989Z,100.00
2022-11-10T06:48:55.770Z,100.00
2022-11-10T06:51:43.629Z,100.00
2022-11-10T06:54:30.155Z,100.00
2022-11-10T06:57:16.938Z,100.00
2022-11-10T07:00:03.817Z,100.00
2022-11-10T07:02:55.431Z,100.00
2022-11-10T07:05:42.250Z,100.00
2022-11-10T07:08:30.636Z,100.00
2022-11-10T07:11:17.361Z,100.00
2022-11-10T07:14:03.885Z,100.00
2022-11-10T07:16:50.420Z,100.00
2022-11-10T07:19:37.076Z,100.00
2022-11-10T07:22:23.530Z,100.00
2022-11-10T07:25:11.704Z,100.00
2022-11-10T07:27:58.993Z,100.00
2022-11-10T07:30:45.326Z,100.00
2022-11-10T07:33:32.106Z,100.00
2022-11-10T07:36:18.607Z,100.00
2022-11-10T07:39:05.354Z,100.00
2022-11-10T07:41:53.438Z,100.00
2022-11-10T07:44:40.623Z,100.00
2022-11-10T07:47:27.121Z,100.00
2022-11-10T07:50:13.920Z,100.00
2022-11-10T07:53:04.996Z,100.00
2022-11-10T07:55:51.694Z,100.00
2022-11-10T07:58:39.496Z,100.00
2022-11-10T08:01:26.389Z,100.00
2022-11-10T08:04:13.239Z,100.00
2022-11-10T08:06:59.948Z,100.00
2022-11-10T08:09:46.476Z,100.00
2022-11-10T08:12:33.875Z,100.00
2022-11-10T08:15:21.917Z,100.00
2022-11-10T08:18:09.589Z,100.00
2022-11-10T08:20:55.919Z,100.00
2022-11-10T08:23:42.830Z,100.00
2022-11-10T08:26:29.190Z,100.00
2022-11-10T08:29:15.586Z,100.00
2022-11-10T08:32:03.590Z,100.00
2022-11-10T08:34:49.871Z,100.00
2022-11-10T08:37:36.375Z,100.00
2022-11-10T08:40:24.225Z,100.00
2022-11-10T08:43:11.781Z,100.00
2022-11-10T08:45:58.650Z,100.00
2022-11-10T08:48:46.651Z,100.00
2022-11-10T08:51:38.703Z,100.00
2022-11-10T08:54:25.699Z,100.00
2022-11-10T08:57:12.288Z,100.00
2022-11-10T08:59:58.985Z,100.00
2022-11-10T09:02:45.437Z,100.00
2022-11-10T09:05:33.528Z,100.00
2022-11-10T09:08:20.280Z,100.00
2022-11-10T09:11:07.439Z,100.00
2022-11-10T09:13:53.684Z,100.00
2022-11-10T09:16:40.440Z,100.00
2022-11-10T09:19:27.062Z,100.00
2022-11-10T09:22:15.177Z,100.00
2022-11-10T09:25:01.436Z,100.00
2022-11-10T09:27:48.342Z,100.00
2022-11-10T09:30:34.664Z,100.00
2022-11-10T09:33:21.844Z,100.00
2022-11-10T09:36:08.899Z,100.00
2022-11-10T09:38:56.729Z,100.00
2022-11-10T09:41:45.443Z,100.00
2022-11-10T09:44:35.989Z,100.00
2022-11-10T09:50:38.282Z,100.00
2022-11-10T09:53:30.573Z,100.00
2022-11-10T09:56:22.809Z,100.00
2022-11-10T09:59:17.530Z,100.00
2022-11-10T10:02:06.560Z,100.00
2022-11-10T10:05:04.299Z,100.00
2022-11-10T10:07:55.762Z,100.00
2022-11-10T10:10:45.641Z,100.00
2022-11-10T10:13:48.288Z,100.00
2022-11-10T10:16:38.592Z,100.00
2022-11-10T10:19:30.647Z,100.00
2022-11-10T10:22:31.489Z,100.00
2022-11-10T10:25:21.495Z,100.00
2022-11-10T10:28:21.364Z,100.00
2022-11-10T10:31:16.229Z,100.00
2022-11-10T10:34:03.485Z,100.00
2022-11-10T10:36:49.800Z,100.00
2022-11-10T10:39:40.307Z,49.22
2022-11-10T10:42:31.974Z,49.15
2022-11-10T10:45:23.925Z,48.78
2022-11-10T10:48:26.209Z,47.65
2022-11-10T10:51:28.875Z,48.71
2022-11-10T10:54:26.549Z,48.15
2022-11-10T10:57:22.457Z,47.55
2022-11-10T11:00:20.634Z,47.03
2022-11-10T11:03:09.211Z,47.33
2022-11-10T11:06:05.905Z,46.75
2022-11-10T11:09:00.635Z,47.06
2022-11-10T11:12:01.082Z,46.32
2022-11-10T11:14:47.772Z,45.76
2022-11-10T11:17:34.533Z,39.91
2022-11-10T11:20:21.384Z,42.81
2022-11-10T11:23:19.712Z,36.25
2022-11-10T11:26:11.129Z,36.78
2022-11-10T11:29:05.686Z,34.55
2022-11-10T11:32:00.452Z,36.99
2022-11-10T11:34:52.936Z,33.71
2022-11-10T11:37:46.421Z,34.06
2022-11-10T11:40:43.151Z,34.15
2022-11-10T11:43:44.866Z,37.00
2022-11-10T11:46:35.852Z,39.52
2022-11-10T11:49:42.660Z,41.59
2022-11-10T11:52:36.220Z,37.45
2022-11-10T11:55:28.981Z,42.95
2022-11-10T11:58:35.014Z,43.02
2022-11-10T12:01:32.044Z,44.83
2022-11-10T12:04:24.271Z,45.44
2022-11-10T12:07:22.184Z,39.57
2022-11-10T12:10:20.052Z,38.43
2022-11-10T12:13:14.330Z,44.15
2022-11-10T12:16:08.838Z,46.51
2022-11-10T12:19:01.167Z,46.37
2022-11-10T12:21:51.523Z,47.51
2022-11-10T12:24:52.459Z,46.58
2022-11-10T12:27:41.991Z,44.08
2022-11-10T12:30:28.736Z,44.36
2022-11-10T12:33:31.364Z,46.32
2022-11-10T12:36:20.654Z,45.43
2022-11-10T12:39:15.214Z,44.35
2022-11-10T12:42:03.711Z,41.96
2022-11-10T12:44:59.456Z,39.50
2022-11-10T12:47:47.082Z,34.97
2022-11-10T12:50:41.650Z,37.81
2022-11-10T12:53:30.283Z,38.47
2022-11-10T12:56:20.097Z,39.80
2022-11-10T12:59:30.922Z,38.07
2022-11-10T13:02:26.189Z,33.91
2022-11-10T13:05:33.780Z,36.66
2022-11-10T13:08:33.884Z,36.25
2022-11-10T13:11:30.471Z,39.54
2022-11-10T13:14:23.869Z,41.87
2022-11-10T13:17:11.848Z,41.38
2022-11-10T13:20:14.144Z,39.14
2022-11-10T13:23:25.329Z,35.78
2022-11-10T13:26:33.874Z,36.77
2022-11-10T13:29:21.785Z,40.38
2022-11-10T13:32:26.918Z,41.88
2022-11-10T13:35:50.031Z,42.96
2022-11-10T13:38:41.724Z,34.58
2022-11-10T13:41:31.704Z,26.33
2022-11-10T13:44:23.964Z,31.03
2022-11-10T13:47:41.172Z,100.00
2022-11-10T13:50:37.083Z,31.03
2022-11-10T13:53:31.757Z,33.69
2022-11-10T13:56:24.804Z,33.38
2022-11-10T13:59:21.293Z,32.79
2022-11-10T14:03:01.014Z,34.30
2022-11-10T14:06:10.325Z,37.85
2022-11-10T14:09:02.077Z,34.28
2022-11-10T14:11:50.769Z,32.23
2022-11-10T14:14:48.900Z,35.39
2022-11-10T14:17:36.572Z,33.64
2022-11-10T14:20:26.092Z,35.71
2022-11-10T14:23:22.928Z,36.63
2022-11-10T14:26:26.232Z,37.00
2022-11-10T14:29:42.334Z,37.62
2022-11-10T14:32:28.909Z,38.09
2022-11-10T14:35:22.800Z,37.35
2022-11-10T14:38:20.983Z,37.85
2022-11-10T14:41:16.243Z,39.48
2022-11-10T14:44:04.804Z,39.49
2022-11-10T14:46:52.876Z,39.08
2022-11-10T14:49:39.337Z,39.71
2022-11-10T14:52:25.723Z,41.69
2022-11-10T14:55:18.262Z,41.84
2022-11-10T14:58:06.690Z,42.01
2022-11-10T15:00:53.850Z,42.88
2022-11-10T15:03:43.575Z,43.98
2022-11-10T15:06:31.108Z,44.33
2022-11-10T15:09:23.406Z,43.79
2022-11-10T15:12:22.346Z,44.00
2022-11-10T15:15:24.044Z,43.63
2022-11-10T15:18:27.944Z,44.66
2022-11-10T15:21:17.687Z,45.67
2022-11-10T15:24:07.315Z,46.63
2022-11-10T15:26:53.893Z,47.80
2022-11-10T15:29:40.492Z,48.05
2022-11-10T15:32:34.606Z,48.24
2022-11-10T15:35:30.243Z,48.53
2022-11-10T15:38:32.230Z,48.42
2022-11-10T15:41:27.326Z,47.90
2022-11-10T15:44:19.986Z,48.21
2022-11-10T15:47:08.023Z,48.62
2022-11-10T15:49:54.470Z,49.20
2022-11-10T15:52:41.106Z,48.76
2022-11-10T15:55:29.683Z,48.57
2022-11-10T15:58:17.232Z,49.26
2022-11-10T16:01:03.932Z,50.23
2022-11-10T16:03:50.701Z,50.49
2022-11-10T16:06:37.309Z,50.41
2022-11-10T16:09:24.089Z,50.60
2022-11-10T16:12:15.426Z,50.86
2022-11-10T16:15:03.483Z,50.92
2022-11-10T16:17:50.051Z,51.53
2022-11-10T16:20:36.709Z,52.61
2022-11-10T16:23:23.469Z,52.67
2022-11-10T16:26:11.845Z,53.11
2022-11-10T16:28:59.904Z,52.50
2022-11-10T16:31:46.326Z,52.47
2022-11-10T16:34:32.749Z,53.46
2022-11-10T16:37:19.051Z,53.53
2022-11-10T16:40:13.772Z,53.43
2022-11-10T16:43:00.514Z,54.39
2022-11-10T16:45:49.453Z,55.59
2022-11-10T16:48:37.674Z,55.67
2022-11-10T16:51:28.707Z,57.25
2022-11-10T16:54:14.998Z,57.81
2022-11-10T16:57:01.684Z,58.73
2022-11-10T16:59:48.214Z,59.32
2022-11-10T17:02:37.449Z,59.54
2022-11-10T17:05:23.991Z,60.29
2022-11-10T17:08:12.927Z,59.83
2022-11-10T17:10:59.165Z,59.85
2022-11-10T17:13:45.738Z,60.16
2022-11-10T17:16:33.656Z,61.00
2022-11-10T17:19:23.485Z,61.58
2022-11-10T17:22:11.010Z,61.72
2022-11-10T17:24:58.210Z,62.11
2022-11-10T17:27:44.796Z,62.66
2022-11-10T17:30:31.332Z,63.51
2022-11-10T17:33:17.937Z,63.67
2022-11-10T17:36:07.337Z,63.82
2022-11-10T17:38:53.754Z,64.55
2022-11-10T17:41:40.035Z,63.05
2022-11-10T17:44:26.822Z,63.56
2022-11-10T17:47:13.046Z,64.04
2022-11-10T17:49:59.624Z,64.49
2022-11-10T17:52:48.238Z,64.07
2022-11-10T17:55:36.715Z,63.77
2022-11-10T17:58:23.422Z,63.98
2022-11-10T18:01:17.583Z,64.40
2022-11-10T18:04:04.182Z,64.03
2022-11-10T18:06:50.603Z,63.42
2022-11-10T18:09:38.550Z,63.83
2022-11-10T18:12:27.896Z,64.55
2022-11-10T18:15:16.168Z,64.01
2022-11-10T18:18:02.632Z,65.51
2022-11-10T18:20:49.101Z,65.24
2022-11-10T18:23:35.714Z,66.60
2022-11-10T18:26:23.516Z,66.79
2022-11-10T18:29:09.739Z,67.49
2022-11-10T18:31:56.365Z,68.32
2022-11-10T18:34:42.979Z,67.30
2022-11-10T18:37:30.008Z,67.15
2022-11-10T18:40:16.333Z,65.35
2022-11-10T18:43:07.397Z,66.33
2022-11-10T18:45:54.591Z,66.36
2022-11-10T18:48:42.553Z,65.79
2022-11-10T18:51:29.402Z,64.88
2022-11-10T18:54:15.835Z,65.69
2022-11-10T18:57:02.625Z,65.57
2022-11-10T18:59:50.568Z,65.50
2022-11-10T19:02:37.548Z,66.24
2022-11-10T19:05:24.800Z,65.73
2022-11-10T19:08:11.318Z,65.10
2022-11-10T19:10:58.202Z,65.47
2022-11-10T19:13:45.852Z,66.09
2022-11-10T19:16:33.572Z,65.21
2022-11-10T19:19:20.129Z,67.11
2022-11-10T19:22:06.856Z,67.53
2022-11-10T19:25:07.526Z,67.31
2022-11-10T19:27:55.318Z,67.41
2022-11-10T19:30:42.168Z,68.21
2022-11-10T19:33:31.886Z,65.81
2022-11-10T19:36:20.569Z,66.80
2022-11-10T19:39:07.520Z,67.46
2022-11-10T19:41:54.214Z,65.46
2022-11-10T19:44:40.924Z,65.67
2022-11-10T19:47:27.401Z,65.55
2022-11-10T19:50:15.360Z,65.92
2022-11-10T19:53:02.005Z,65.41
2022-11-10T19:55:48.445Z,65.43
2022-11-10T19:58:37.212Z,65.56
2022-11-10T20:01:24.266Z,64.83
2022-11-10T20:04:12.472Z,64.53
2022-11-10T20:07:23.320Z,64.64
2022-11-10T20:10:10.848Z,64.77
2022-11-10T20:12:57.115Z,65.29
2022-11-10T20:15:44.793Z,66.39
2022-11-10T20:18:31.659Z,66.53
2022-11-10T20:21:22.308Z,67.49
2022-11-10T20:24:09.957Z,67.80
2022-11-10T20:26:56.317Z,68.04
2022-11-10T20:29:44.051Z,68.51
2022-11-10T20:32:30.183Z,68.36
2022-11-10T20:35:16.511Z,68.46
2022-11-10T20:38:02.945Z,68.96
2022-11-10T20:40:50.636Z,68.33
2022-11-10T20:43:38.440Z,68.30
2022-11-10T20:46:52.686Z,68.22
2022-11-10T20:49:31.289Z,68.11
2022-11-10T20:52:17.634Z,67.06
2022-11-10T20:55:05.404Z,67.79
2022-11-10T20:57:53.788Z,67.42
2022-11-10T21:00:43.044Z,67.20
2022-11-10T21:03:29.559Z,66.31
2022-11-10T21:06:15.965Z,67.14
2022-11-10T21:09:02.420Z,67.45
2022-11-10T21:12:06.416Z,67.13
2022-11-10T21:14:54.282Z,66.42
2022-11-10T21:17:44.123Z,66.58
2022-11-10T21:20:30.768Z,66.34
2022-11-10T21:23:17.260Z,66.34
2022-11-10T21:26:03.514Z,66.36
2022-11-10T21:28:50.132Z,65.88
2022-11-10T21:31:37.928Z,65.21
2022-11-10T21:34:24.201Z,65.35
2022-11-10T21:37:10.492Z,65.01
2022-11-10T21:39:57.307Z,64.37
2022-11-10T21:42:43.592Z,64.98
2022-11-10T21:45:30.070Z,64.95
2022-11-10T21:48:17.564Z,65.25
2022-11-10T21:51:05.884Z,65.46
2022-11-10T21:53:52.079Z,66.11
2022-11-10T21:56:38.477Z,65.16
2022-11-10T21:59:24.725Z,65.44
2022-11-10T22:02:11.299Z,65.12
2022-11-10T22:04:58.890Z,65.60
2022-11-10T22:07:45.336Z,65.08
2022-11-10T22:10:49.209Z,64.64
2022-11-10T22:13:53.053Z,64.88
2022-11-10T22:17:03.094Z,65.49
2022-11-10T22:19:49.494Z,65.12
2022-11-10T22:22:37.291Z,65.18
2022-11-10T22:25:23.620Z,64.75
2022-11-10T22:28:09.753Z,64.80
2022-11-10T22:30:56.404Z,65.11
2022-11-10T22:33:44.051Z,65.37
2022-11-10T22:36:30.423Z,64.76
2022-11-10T22:39:18.994Z,64.94
2022-11-10T22:42:22.764Z,65.51
2022-11-10T22:45:09.996Z,65.68
2022-11-10T22:48:22.455Z,66.64
2022-11-10T22:51:08.973Z,66.38
2022-11-10T22:53:55.208Z,64.54
2022-11-10T22:56:43.626Z,65.01
2022-11-10T22:59:29.904Z,65.72
2022-11-10T23:02:15.990Z,64.77
2022-11-10T23:05:02.481Z,64.17
2022-11-10T23:07:49.258Z,64.44
2022-11-10T23:10:35.622Z,63.92
2022-11-10T23:13:23.639Z,63.22
2022-11-10T23:16:11.768Z,63.25
2022-11-10T23:18:59.004Z,65.03
2022-11-10T23:21:45.533Z,63.77
2022-11-10T23:24:32.016Z,63.87
2022-11-10T23:27:18.268Z,64.28
2022-11-10T23:30:07.014Z,63.68
2022-11-10T23:32:55.084Z,64.69
2022-11-10T23:35:41.198Z,64.71
2022-11-10T23:38:29.818Z,66.83
2022-11-10T23:41:18.416Z,67.05
2022-11-10T23:44:04.947Z,67.64
2022-11-10T23:46:52.651Z,67.71
2022-11-10T23:49:39.042Z,67.90
2022-11-10T23:52:25.274Z,68.17
2022-11-10T23:55:11.425Z,67.39
2022-11-10T23:57:57.736Z,66.47
